sensor_id;sensor_type;location;lat;lon;timestamp;P1;durP1;ratioP1;P2;durP2;ratioP2
54835;SDS011;43486;43.574;1.476;2022-12-24T00:01:50;11.77;;;5.55;;
54835;SDS011;43486;43.574;1.476;2022-12-24T00:04:15;12.40;;;6.75;;
54835;SDS011;43486;43.574;1.476;2022-12-24T00:06:41;10.77;;;5.45;;
54835;SDS011;43486;43.574;1.476;2022-12-24T00:09:06;16.55;;;7.38;;
54835;SDS011;43486;43.574;1.476;2022-12-24T00:11:31;14.57;;;6.28;;
54835;SDS011;43486;43.574;1.476;2022-12-24T00:13:57;16.95;;;7.78;;
54835;SDS011;43486;43.574;1.476;2022-12-24T00:16:22;12.20;;;5.68;;
54835;SDS011;43486;43.574;1.476;2022-12-24T00:18:48;24.42;;;7.55;;
54835;SDS011;43486;43.574;1.476;2022-12-24T00:21:14;8.57;;;5.78;;
54835;SDS011;43486;43.574;1.476;2022-12-24T00:23:39;13.73;;;6.47;;
54835;SDS011;43486;43.574;1.476;2022-12-24T00:26:05;11.48;;;7.07;;
54835;SDS011;43486;43.574;1.476;2022-12-24T00:28:30;10.60;;;6.07;;
54835;SDS011;43486;43.574;1.476;2022-12-24T00:30:55;11.63;;;6.88;;
54835;SDS011;43486;43.574;1.476;2022-12-24T00:33:21;12.95;;;7.63;;
54835;SDS011;43486;43.574;1.476;2022-12-24T00:35:48;11.40;;;6.95;;
54835;SDS011;43486;43.574;1.476;2022-12-24T00:38:14;9.10;;;5.45;;
54835;SDS011;43486;43.574;1.476;2022-12-24T00:40:40;20.73;;;7.13;;
54835;SDS011;43486;43.574;1.476;2022-12-24T00:43:05;11.35;;;6.90;;
54835;SDS011;43486;43.574;1.476;2022-12-24T00:45:30;12.30;;;7.43;;
54835;SDS011;43486;43.574;1.476;2022-12-24T00:47:56;10.07;;;5.78;;
54835;SDS011;43486;43.574;1.476;2022-12-24T00:50:21;8.60;;;6.30;;
54835;SDS011;43486;43.574;1.476;2022-12-24T00:52:47;10.38;;;6.65;;
54835;SDS011;43486;43.574;1.476;2022-12-24T00:55:12;14.05;;;7.53;;
54835;SDS011;43486;43.574;1.476;2022-12-24T00:57:38;13.52;;;7.13;;
54835;SDS011;43486;43.574;1.476;2022-12-24T01:00:03;12.95;;;6.55;;
54835;SDS011;43486;43.574;1.476;2022-12-24T01:02:29;15.77;;;7.32;;
54835;SDS011;43486;43.574;1.476;2022-12-24T01:04:55;9.38;;;6.35;;
54835;SDS011;43486;43.574;1.476;2022-12-24T01:07:36;8.95;;;6.18;;
54835;SDS011;43486;43.574;1.476;2022-12-24T01:10:02;14.82;;;8.32;;
54835;SDS011;43486;43.574;1.476;2022-12-24T01:12:28;14.85;;;7.82;;
54835;SDS011;43486;43.574;1.476;2022-12-24T01:14:54;14.50;;;7.05;;
54835;SDS011;43486;43.574;1.476;2022-12-24T01:17:19;12.20;;;7.28;;
54835;SDS011;43486;43.574;1.476;2022-12-24T01:19:45;12.57;;;7.07;;
54835;SDS011;43486;43.574;1.476;2022-12-24T01:22:10;11.98;;;7.55;;
54835;SDS011;43486;43.574;1.476;2022-12-24T01:24:35;18.58;;;7.28;;
54835;SDS011;43486;43.574;1.476;2022-12-24T01:27:01;17.15;;;7.53;;
54835;SDS011;43486;43.574;1.476;2022-12-24T01:29:26;14.35;;;7.80;;
54835;SDS011;43486;43.574;1.476;2022-12-24T01:31:52;15.60;;;8.38;;
54835;SDS011;43486;43.574;1.476;2022-12-24T01:34:17;10.48;;;5.82;;
54835;SDS011;43486;43.574;1.476;2022-12-24T01:36:42;13.95;;;7.38;;
54835;SDS011;43486;43.574;1.476;2022-12-24T01:39:08;11.10;;;6.78;;
54835;SDS011;43486;43.574;1.476;2022-12-24T01:41:33;12.50;;;7.20;;
54835;SDS011;43486;43.574;1.476;2022-12-24T01:44:27;14.77;;;6.50;;
54835;SDS011;43486;43.574;1.476;2022-12-24T01:47:01;13.65;;;8.60;;
54835;SDS011;43486;43.574;1.476;2022-12-24T01:49:40;10.63;;;7.38;;
54835;SDS011;43486;43.574;1.476;2022-12-24T01:55:05;14.25;;;6.13;;
54835;SDS011;43486;43.574;1.476;2022-12-24T01:57:34;13.48;;;6.85;;
54835;SDS011;43486;43.574;1.476;2022-12-24T02:00:04;11.82;;;6.53;;
54835;SDS011;43486;43.574;1.476;2022-12-24T02:02:32;13.00;;;7.53;;
54835;SDS011;43486;43.574;1.476;2022-12-24T02:05:09;10.18;;;6.57;;
54835;SDS011;43486;43.574;1.476;2022-12-24T02:07:38;14.98;;;8.77;;
54835;SDS011;43486;43.574;1.476;2022-12-24T02:10:07;10.95;;;7.32;;
54835;SDS011;43486;43.574;1.476;2022-12-24T02:12:35;11.80;;;7.30;;
54835;SDS011;43486;43.574;1.476;2022-12-24T02:15:03;12.63;;;7.32;;
54835;SDS011;43486;43.574;1.476;2022-12-24T02:23:17;10.43;;;7.13;;
54835;SDS011;43486;43.574;1.476;2022-12-24T02:31:05;13.57;;;7.70;;
54835;SDS011;43486;43.574;1.476;2022-12-24T02:36:24;15.18;;;7.30;;
54835;SDS011;43486;43.574;1.476;2022-12-24T02:41:37;15.27;;;9.48;;
54835;SDS011;43486;43.574;1.476;2022-12-24T02:44:25;16.35;;;9.23;;
54835;SDS011;43486;43.574;1.476;2022-12-24T02:46:51;14.00;;;8.07;;
54835;SDS011;43486;43.574;1.476;2022-12-24T02:49:17;15.77;;;9.02;;
54835;SDS011;43486;43.574;1.476;2022-12-24T02:51:42;19.85;;;8.57;;
54835;SDS011;43486;43.574;1.476;2022-12-24T02:54:08;12.23;;;6.90;;
54835;SDS011;43486;43.574;1.476;2022-12-24T02:56:46;11.75;;;8.02;;
54835;SDS011;43486;43.574;1.476;2022-12-24T03:12:06;12.00;;;6.88;;
54835;SDS011;43486;43.574;1.476;2022-12-24T03:14:37;11.60;;;6.85;;
54835;SDS011;43486;43.574;1.476;2022-12-24T03:17:03;12.98;;;6.97;;
54835;SDS011;43486;43.574;1.476;2022-12-24T03:19:29;12.00;;;6.78;;
54835;SDS011;43486;43.574;1.476;2022-12-24T03:21:55;13.73;;;7.05;;
54835;SDS011;43486;43.574;1.476;2022-12-24T03:24:22;15.25;;;7.38;;
54835;SDS011;43486;43.574;1.476;2022-12-24T03:26:47;12.73;;;7.43;;
54835;SDS011;43486;43.574;1.476;2022-12-24T03:29:13;13.10;;;8.00;;
54835;SDS011;43486;43.574;1.476;2022-12-24T03:31:42;11.50;;;7.05;;
54835;SDS011;43486;43.574;1.476;2022-12-24T03:34:10;10.90;;;7.45;;
54835;SDS011;43486;43.574;1.476;2022-12-24T03:36:36;12.18;;;7.13;;
54835;SDS011;43486;43.574;1.476;2022-12-24T03:39:02;10.15;;;6.20;;
54835;SDS011;43486;43.574;1.476;2022-12-24T03:41:28;7.15;;;5.28;;
54835;SDS011;43486;43.574;1.476;2022-12-24T03:43:54;11.85;;;6.13;;
54835;SDS011;43486;43.574;1.476;2022-12-24T03:46:19;10.80;;;6.03;;
54835;SDS011;43486;43.574;1.476;2022-12-24T03:48:44;11.90;;;5.75;;
54835;SDS011;43486;43.574;1.476;2022-12-24T03:51:17;9.18;;;5.72;;
54835;SDS011;43486;43.574;1.476;2022-12-24T03:53:43;11.85;;;6.95;;
54835;SDS011;43486;43.574;1.476;2022-12-24T03:56:09;11.57;;;6.25;;
54835;SDS011;43486;43.574;1.476;2022-12-24T03:58:34;13.23;;;6.28;;
54835;SDS011;43486;43.574;1.476;2022-12-24T04:00:59;9.68;;;6.93;;
54835;SDS011;43486;43.574;1.476;2022-12-24T04:03:25;12.35;;;6.47;;
54835;SDS011;43486;43.574;1.476;2022-12-24T04:06:00;11.40;;;6.20;;
54835;SDS011;43486;43.574;1.476;2022-12-24T04:08:26;10.48;;;6.38;;
54835;SDS011;43486;43.574;1.476;2022-12-24T04:10:51;10.90;;;7.13;;
54835;SDS011;43486;43.574;1.476;2022-12-24T04:13:17;10.77;;;5.25;;
54835;SDS011;43486;43.574;1.476;2022-12-24T04:15:42;8.63;;;5.95;;
54835;SDS011;43486;43.574;1.476;2022-12-24T04:18:07;10.68;;;5.03;;
54835;SDS011;43486;43.574;1.476;2022-12-24T04:20:33;9.05;;;4.90;;
54835;SDS011;43486;43.574;1.476;2022-12-24T04:22:58;11.52;;;6.75;;
54835;SDS011;43486;43.574;1.476;2022-12-24T04:25:24;13.40;;;8.38;;
54835;SDS011;43486;43.574;1.476;2022-12-24T04:27:49;8.45;;;5.13;;
54835;SDS011;43486;43.574;1.476;2022-12-24T04:30:14;9.93;;;6.10;;
54835;SDS011;43486;43.574;1.476;2022-12-24T04:32:40;10.30;;;5.55;;
54835;SDS011;43486;43.574;1.476;2022-12-24T04:35:05;12.23;;;5.28;;
54835;SDS011;43486;43.574;1.476;2022-12-24T04:37:32;13.73;;;6.03;;
54835;SDS011;43486;43.574;1.476;2022-12-24T04:39:58;7.60;;;4.65;;
54835;SDS011;43486;43.574;1.476;2022-12-24T04:42:23;10.88;;;5.30;;
54835;SDS011;43486;43.574;1.476;2022-12-24T04:44:49;10.07;;;5.30;;
54835;SDS011;43486;43.574;1.476;2022-12-24T04:47:14;7.85;;;5.25;;
54835;SDS011;43486;43.574;1.476;2022-12-24T04:49:39;11.35;;;5.13;;
54835;SDS011;43486;43.574;1.476;2022-12-24T04:52:05;8.85;;;5.82;;
54835;SDS011;43486;43.574;1.476;2022-12-24T04:54:30;6.93;;;4.38;;
54835;SDS011;43486;43.574;1.476;2022-12-24T04:56:56;9.18;;;4.93;;
54835;SDS011;43486;43.574;1.476;2022-12-24T04:59:21;11.93;;;5.32;;
54835;SDS011;43486;43.574;1.476;2022-12-24T05:01:46;10.25;;;5.13;;
54835;SDS011;43486;43.574;1.476;2022-12-24T05:04:12;10.73;;;5.63;;
54835;SDS011;43486;43.574;1.476;2022-12-24T05:06:37;9.38;;;4.68;;
54835;SDS011;43486;43.574;1.476;2022-12-24T05:09:02;13.40;;;5.57;;
54835;SDS011;43486;43.574;1.476;2022-12-24T05:11:29;10.00;;;6.35;;
54835;SDS011;43486;43.574;1.476;2022-12-24T05:13:54;9.77;;;4.53;;
54835;SDS011;43486;43.574;1.476;2022-12-24T05:16:20;12.52;;;4.63;;
54835;SDS011;43486;43.574;1.476;2022-12-24T05:18:46;9.55;;;5.80;;
54835;SDS011;43486;43.574;1.476;2022-12-24T05:21:16;7.97;;;4.43;;
54835;SDS011;43486;43.574;1.476;2022-12-24T05:23:42;7.63;;;5.32;;
54835;SDS011;43486;43.574;1.476;2022-12-24T05:29:14;8.27;;;4.85;;
54835;SDS011;43486;43.574;1.476;2022-12-24T05:31:40;13.80;;;4.28;;
54835;SDS011;43486;43.574;1.476;2022-12-24T05:34:06;9.98;;;4.55;;
54835;SDS011;43486;43.574;1.476;2022-12-24T05:36:32;8.38;;;4.80;;
54835;SDS011;43486;43.574;1.476;2022-12-24T05:38:57;8.30;;;4.60;;
54835;SDS011;43486;43.574;1.476;2022-12-24T05:41:23;9.43;;;4.90;;
54835;SDS011;43486;43.574;1.476;2022-12-24T05:43:49;9.00;;;5.18;;
54835;SDS011;43486;43.574;1.476;2022-12-24T05:46:15;8.55;;;4.53;;
54835;SDS011;43486;43.574;1.476;2022-12-24T05:48:43;9.00;;;5.00;;
54835;SDS011;43486;43.574;1.476;2022-12-24T05:51:09;6.97;;;4.45;;
54835;SDS011;43486;43.574;1.476;2022-12-24T05:53:36;8.15;;;4.85;;
54835;SDS011;43486;43.574;1.476;2022-12-24T05:56:02;7.28;;;4.60;;
54835;SDS011;43486;43.574;1.476;2022-12-24T05:58:29;9.13;;;4.82;;
54835;SDS011;43486;43.574;1.476;2022-12-24T06:00:55;7.78;;;4.88;;
54835;SDS011;43486;43.574;1.476;2022-12-24T06:03:20;10.73;;;5.47;;
54835;SDS011;43486;43.574;1.476;2022-12-24T06:05:45;8.40;;;4.68;;
54835;SDS011;43486;43.574;1.476;2022-12-24T06:08:11;7.10;;;4.32;;
54835;SDS011;43486;43.574;1.476;2022-12-24T06:10:36;8.38;;;4.32;;
54835;SDS011;43486;43.574;1.476;2022-12-24T06:13:02;13.73;;;4.63;;
54835;SDS011;43486;43.574;1.476;2022-12-24T06:15:27;8.50;;;4.93;;
54835;SDS011;43486;43.574;1.476;2022-12-24T06:17:52;10.02;;;4.93;;
54835;SDS011;43486;43.574;1.476;2022-12-24T06:20:18;7.05;;;3.78;;
54835;SDS011;43486;43.574;1.476;2022-12-24T06:22:43;10.32;;;4.38;;
54835;SDS011;43486;43.574;1.476;2022-12-24T06:25:09;6.00;;;3.55;;
54835;SDS011;43486;43.574;1.476;2022-12-24T06:27:34;8.65;;;3.80;;
54835;SDS011;43486;43.574;1.476;2022-12-24T06:29:59;8.60;;;4.47;;
54835;SDS011;43486;43.574;1.476;2022-12-24T06:32:25;8.55;;;4.95;;
54835;SDS011;43486;43.574;1.476;2022-12-24T06:34:50;9.85;;;6.28;;
54835;SDS011;43486;43.574;1.476;2022-12-24T06:37:16;9.88;;;5.80;;
54835;SDS011;43486;43.574;1.476;2022-12-24T06:39:44;9.82;;;4.15;;
54835;SDS011;43486;43.574;1.476;2022-12-24T06:42:11;8.18;;;4.93;;
54835;SDS011;43486;43.574;1.476;2022-12-24T06:44:37;8.68;;;5.03;;
54835;SDS011;43486;43.574;1.476;2022-12-24T06:47:02;8.68;;;4.75;;
54835;SDS011;43486;43.574;1.476;2022-12-24T06:49:27;9.60;;;4.80;;
54835;SDS011;43486;43.574;1.476;2022-12-24T06:51:53;12.00;;;4.85;;
54835;SDS011;43486;43.574;1.476;2022-12-24T06:54:18;11.27;;;4.95;;
54835;SDS011;43486;43.574;1.476;2022-12-24T06:56:43;9.60;;;5.13;;
54835;SDS011;43486;43.574;1.476;2022-12-24T06:59:09;7.40;;;4.00;;
54835;SDS011;43486;43.574;1.476;2022-12-24T07:01:34;7.97;;;4.70;;
54835;SDS011;43486;43.574;1.476;2022-12-24T07:03:59;8.38;;;4.70;;
54835;SDS011;43486;43.574;1.476;2022-12-24T07:06:26;9.63;;;4.28;;
54835;SDS011;43486;43.574;1.476;2022-12-24T07:08:52;7.80;;;4.75;;
54835;SDS011;43486;43.574;1.476;2022-12-24T07:11:18;6.43;;;3.58;;
54835;SDS011;43486;43.574;1.476;2022-12-24T07:13:44;12.30;;;5.10;;
54835;SDS011;43486;43.574;1.476;2022-12-24T07:16:10;11.40;;;5.95;;
54835;SDS011;43486;43.574;1.476;2022-12-24T07:18:36;7.50;;;4.57;;
54835;SDS011;43486;43.574;1.476;2022-12-24T07:21:02;8.30;;;4.90;;
54835;SDS011;43486;43.574;1.476;2022-12-24T07:23:28;8.35;;;4.55;;
54835;SDS011;43486;43.574;1.476;2022-12-24T07:25:58;7.80;;;4.50;;
54835;SDS011;43486;43.574;1.476;2022-12-24T07:28:25;7.30;;;5.63;;
54835;SDS011;43486;43.574;1.476;2022-12-24T07:30:50;7.05;;;3.50;;
54835;SDS011;43486;43.574;1.476;2022-12-24T07:33:15;6.78;;;3.60;;
54835;SDS011;43486;43.574;1.476;2022-12-24T07:35:41;8.73;;;4.60;;
54835;SDS011;43486;43.574;1.476;2022-12-24T07:38:06;6.97;;;4.20;;
54835;SDS011;43486;43.574;1.476;2022-12-24T07:40:32;7.55;;;4.47;;
54835;SDS011;43486;43.574;1.476;2022-12-24T07:42:59;6.35;;;3.70;;
54835;SDS011;43486;43.574;1.476;2022-12-24T07:45:24;6.40;;;3.65;;
54835;SDS011;43486;43.574;1.476;2022-12-24T07:47:49;12.15;;;5.35;;
54835;SDS011;43486;43.574;1.476;2022-12-24T07:50:15;9.23;;;3.90;;
54835;SDS011;43486;43.574;1.476;2022-12-24T07:52:40;9.27;;;4.18;;
54835;SDS011;43486;43.574;1.476;2022-12-24T07:55:05;7.80;;;4.28;;
54835;SDS011;43486;43.574;1.476;2022-12-24T07:57:31;6.95;;;3.83;;
54835;SDS011;43486;43.574;1.476;2022-12-24T07:59:56;7.80;;;4.45;;
54835;SDS011;43486;43.574;1.476;2022-12-24T08:02:22;7.05;;;3.78;;
54835;SDS011;43486;43.574;1.476;2022-12-24T08:04:47;10.05;;;4.35;;
54835;SDS011;43486;43.574;1.476;2022-12-24T08:07:13;9.10;;;4.72;;
54835;SDS011;43486;43.574;1.476;2022-12-24T08:09:38;7.97;;;4.82;;
54835;SDS011;43486;43.574;1.476;2022-12-24T08:12:04;7.47;;;4.10;;
54835;SDS011;43486;43.574;1.476;2022-12-24T08:14:29;12.70;;;3.58;;
54835;SDS011;43486;43.574;1.476;2022-12-24T08:16:55;5.88;;;3.67;;
54835;SDS011;43486;43.574;1.476;2022-12-24T08:19:21;8.88;;;4.10;;
54835;SDS011;43486;43.574;1.476;2022-12-24T08:21:46;8.27;;;4.55;;
54835;SDS011;43486;43.574;1.476;2022-12-24T08:24:12;8.10;;;3.28;;
54835;SDS011;43486;43.574;1.476;2022-12-24T08:26:37;7.05;;;3.92;;
54835;SDS011;43486;43.574;1.476;2022-12-24T08:29:03;5.40;;;3.38;;
54835;SDS011;43486;43.574;1.476;2022-12-24T08:31:29;6.35;;;4.10;;
54835;SDS011;43486;43.574;1.476;2022-12-24T08:33:54;8.50;;;4.28;;
54835;SDS011;43486;43.574;1.476;2022-12-24T08:36:20;6.55;;;3.30;;
54835;SDS011;43486;43.574;1.476;2022-12-24T08:38:45;9.52;;;3.75;;
54835;SDS011;43486;43.574;1.476;2022-12-24T08:41:11;6.82;;;3.88;;
54835;SDS011;43486;43.574;1.476;2022-12-24T08:43:36;7.00;;;4.03;;
54835;SDS011;43486;43.574;1.476;2022-12-24T08:46:02;6.00;;;3.90;;
54835;SDS011;43486;43.574;1.476;2022-12-24T08:48:29;6.07;;;3.05;;
54835;SDS011;43486;43.574;1.476;2022-12-24T08:50:54;6.63;;;2.88;;
54835;SDS011;43486;43.574;1.476;2022-12-24T08:53:20;6.22;;;4.07;;
54835;SDS011;43486;43.574;1.476;2022-12-24T08:55:45;6.60;;;4.05;;
54835;SDS011;43486;43.574;1.476;2022-12-24T08:58:12;6.20;;;3.30;;
54835;SDS011;43486;43.574;1.476;2022-12-24T09:00:37;7.38;;;4.70;;
54835;SDS011;43486;43.574;1.476;2022-12-24T09:03:03;5.88;;;3.38;;
54835;SDS011;43486;43.574;1.476;2022-12-24T09:05:28;8.65;;;3.60;;
54835;SDS011;43486;43.574;1.476;2022-12-24T09:07:54;12.27;;;3.67;;
54835;SDS011;43486;43.574;1.476;2022-12-24T09:10:19;8.30;;;3.80;;
54835;SDS011;43486;43.574;1.476;2022-12-24T09:12:45;6.38;;;3.58;;
54835;SDS011;43486;43.574;1.476;2022-12-24T09:15:10;4.95;;;3.13;;
54835;SDS011;43486;43.574;1.476;2022-12-24T09:17:38;10.57;;;3.33;;
54835;SDS011;43486;43.574;1.476;2022-12-24T09:20:03;7.13;;;3.38;;
54835;SDS011;43486;43.574;1.476;2022-12-24T09:22:30;9.27;;;4.22;;
54835;SDS011;43486;43.574;1.476;2022-12-24T09:24:58;6.03;;;3.75;;
54835;SDS011;43486;43.574;1.476;2022-12-24T09:27:23;6.63;;;3.55;;
54835;SDS011;43486;43.574;1.476;2022-12-24T09:29:48;5.47;;;3.78;;
54835;SDS011;43486;43.574;1.476;2022-12-24T09:32:14;6.78;;;2.97;;
54835;SDS011;43486;43.574;1.476;2022-12-24T09:34:39;6.13;;;3.53;;
54835;SDS011;43486;43.574;1.476;2022-12-24T09:37:05;9.15;;;3.63;;
54835;SDS011;43486;43.574;1.476;2022-12-24T09:39:30;9.38;;;3.75;;
54835;SDS011;43486;43.574;1.476;2022-12-24T09:44:44;9.95;;;4.10;;
54835;SDS011;43486;43.574;1.476;2022-12-24T09:49:43;5.93;;;3.47;;
54835;SDS011;43486;43.574;1.476;2022-12-24T09:52:11;11.35;;;4.43;;
54835;SDS011;43486;43.574;1.476;2022-12-24T09:54:48;9.43;;;3.88;;
54835;SDS011;43486;43.574;1.476;2022-12-24T09:57:26;9.40;;;4.53;;
54835;SDS011;43486;43.574;1.476;2022-12-24T09:59:54;6.43;;;2.83;;
54835;SDS011;43486;43.574;1.476;2022-12-24T10:02:19;9.38;;;3.80;;
54835;SDS011;43486;43.574;1.476;2022-12-24T10:04:46;11.82;;;3.58;;
54835;SDS011;43486;43.574;1.476;2022-12-24T10:07:30;7.80;;;3.58;;
54835;SDS011;43486;43.574;1.476;2022-12-24T10:13:12;6.65;;;3.35;;
54835;SDS011;43486;43.574;1.476;2022-12-24T10:18:59;5.57;;;3.08;;
54835;SDS011;43486;43.574;1.476;2022-12-24T10:23:59;7.13;;;3.47;;
54835;SDS011;43486;43.574;1.476;2022-12-24T10:26:53;7.10;;;3.47;;
54835;SDS011;43486;43.574;1.476;2022-12-24T10:29:31;6.85;;;2.70;;
54835;SDS011;43486;43.574;1.476;2022-12-24T10:34:42;5.30;;;3.35;;
54835;SDS011;43486;43.574;1.476;2022-12-24T10:37:16;8.30;;;4.20;;
54835;SDS011;43486;43.574;1.476;2022-12-24T10:39:47;4.90;;;3.40;;
54835;SDS011;43486;43.574;1.476;2022-12-24T10:42:12;9.57;;;3.80;;
54835;SDS011;43486;43.574;1.476;2022-12-24T10:44:39;5.57;;;2.97;;
54835;SDS011;43486;43.574;1.476;2022-12-24T10:47:05;7.47;;;3.72;;
54835;SDS011;43486;43.574;1.476;2022-12-24T10:49:36;4.90;;;2.75;;
54835;SDS011;43486;43.574;1.476;2022-12-24T10:52:15;5.70;;;3.47;;
54835;SDS011;43486;43.574;1.476;2022-12-24T10:57:29;4.57;;;2.33;;
54835;SDS011;43486;43.574;1.476;2022-12-24T10:59:55;5.68;;;2.55;;
54835;SDS011;43486;43.574;1.476;2022-12-24T11:02:25;9.45;;;3.53;;
54835;SDS011;43486;43.574;1.476;2022-12-24T11:05:09;5.97;;;3.33;;
54835;SDS011;43486;43.574;1.476;2022-12-24T11:08:01;5.45;;;2.63;;
54835;SDS011;43486;43.574;1.476;2022-12-24T11:10:38;5.15;;;2.72;;
54835;SDS011;43486;43.574;1.476;2022-12-24T11:13:05;5.82;;;2.75;;
54835;SDS011;43486;43.574;1.476;2022-12-24T11:15:46;5.15;;;2.47;;
54835;SDS011;43486;43.574;1.476;2022-12-24T11:18:15;7.22;;;3.67;;
54835;SDS011;43486;43.574;1.476;2022-12-24T11:20:41;5.60;;;2.88;;
54835;SDS011;43486;43.574;1.476;2022-12-24T11:23:14;7.03;;;4.13;;
54835;SDS011;43486;43.574;1.476;2022-12-24T11:25:40;5.53;;;3.13;;
54835;SDS011;43486;43.574;1.476;2022-12-24T11:28:14;6.72;;;3.45;;
54835;SDS011;43486;43.574;1.476;2022-12-24T11:30:42;8.77;;;3.50;;
54835;SDS011;43486;43.574;1.476;2022-12-24T11:33:27;4.93;;;3.03;;
54835;SDS011;43486;43.574;1.476;2022-12-24T11:35:59;6.40;;;2.95;;
54835;SDS011;43486;43.574;1.476;2022-12-24T11:38:27;5.75;;;3.65;;
54835;SDS011;43486;43.574;1.476;2022-12-24T11:40:57;7.75;;;3.13;;
54835;SDS011;43486;43.574;1.476;2022-12-24T11:43:24;5.50;;;2.80;;
54835;SDS011;43486;43.574;1.476;2022-12-24T11:46:50;8.25;;;3.28;;
54835;SDS011;43486;43.574;1.476;2022-12-24T11:52:03;7.05;;;3.38;;
54835;SDS011;43486;43.574;1.476;2022-12-24T11:54:58;4.15;;;2.22;;
54835;SDS011;43486;43.574;1.476;2022-12-24T11:57:22;7.00;;;3.53;;
54835;SDS011;43486;43.574;1.476;2022-12-24T11:59:49;5.18;;;3.00;;
54835;SDS011;43486;43.574;1.476;2022-12-24T12:02:24;5.50;;;3.10;;
54835;SDS011;43486;43.574;1.476;2022-12-24T12:04:56;7.68;;;3.38;;
54835;SDS011;43486;43.574;1.476;2022-12-24T12:07:24;6.93;;;3.08;;
54835;SDS011;43486;43.574;1.476;2022-12-24T12:09:57;4.70;;;2.45;;
54835;SDS011;43486;43.574;1.476;2022-12-24T12:12:29;5.60;;;3.00;;
54835;SDS011;43486;43.574;1.476;2022-12-24T12:15:03;7.05;;;3.80;;
54835;SDS011;43486;43.574;1.476;2022-12-24T12:17:35;4.97;;;2.88;;
54835;SDS011;43486;43.574;1.476;2022-12-24T12:20:09;5.43;;;2.78;;
54835;SDS011;43486;43.574;1.476;2022-12-24T12:22:54;9.73;;;2.88;;
54835;SDS011;43486;43.574;1.476;2022-12-24T12:28:21;4.15;;;2.38;;
54835;SDS011;43486;43.574;1.476;2022-12-24T12:30:52;5.07;;;2.70;;
54835;SDS011;43486;43.574;1.476;2022-12-24T12:36:16;6.38;;;3.45;;
54835;SDS011;43486;43.574;1.476;2022-12-24T12:38:43;5.85;;;2.50;;
54835;SDS011;43486;43.574;1.476;2022-12-24T12:49:50;6.25;;;2.97;;
54835;SDS011;43486;43.574;1.476;2022-12-24T12:57:53;4.53;;;2.78;;
54835;SDS011;43486;43.574;1.476;2022-12-24T13:00:24;4.43;;;1.98;;
54835;SDS011;43486;43.574;1.476;2022-12-24T13:03:34;4.45;;;1.98;;
54835;SDS011;43486;43.574;1.476;2022-12-24T13:17:48;8.35;;;2.17;;
54835;SDS011;43486;43.574;1.476;2022-12-24T13:22:48;6.20;;;1.98;;
54835;SDS011;43486;43.574;1.476;2022-12-24T13:25:34;3.67;;;2.05;;
54835;SDS011;43486;43.574;1.476;2022-12-24T13:28:29;8.98;;;2.92;;
54835;SDS011;43486;43.574;1.476;2022-12-24T13:33:53;5.10;;;2.97;;
54835;SDS011;43486;43.574;1.476;2022-12-24T13:36:20;4.70;;;2.17;;
54835;SDS011;43486;43.574;1.476;2022-12-24T13:38:54;4.15;;;1.88;;
54835;SDS011;43486;43.574;1.476;2022-12-24T13:50:06;4.75;;;2.47;;
54835;SDS011;43486;43.574;1.476;2022-12-24T13:52:22;5.65;;;2.70;;
54835;SDS011;43486;43.574;1.476;2022-12-24T13:54:58;4.45;;;1.70;;
54835;SDS011;43486;43.574;1.476;2022-12-24T13:57:36;4.20;;;2.08;;
54835;SDS011;43486;43.574;1.476;2022-12-24T14:08:11;3.30;;;1.80;;
54835;SDS011;43486;43.574;1.476;2022-12-24T14:11:08;7.50;;;2.70;;
54835;SDS011;43486;43.574;1.476;2022-12-24T14:16:02;6.10;;;1.90;;
54835;SDS011;43486;43.574;1.476;2022-12-24T14:18:34;4.88;;;2.20;;
54835;SDS011;43486;43.574;1.476;2022-12-24T14:21:02;6.80;;;2.33;;
54835;SDS011;43486;43.574;1.476;2022-12-24T14:23:34;3.90;;;2.25;;
54835;SDS011;43486;43.574;1.476;2022-12-24T14:26:07;5.10;;;2.10;;
54835;SDS011;43486;43.574;1.476;2022-12-24T14:28:42;4.25;;;2.03;;
54835;SDS011;43486;43.574;1.476;2022-12-24T14:31:12;4.32;;;1.92;;
54835;SDS011;43486;43.574;1.476;2022-12-24T14:33:39;5.40;;;2.63;;
54835;SDS011;43486;43.574;1.476;2022-12-24T14:36:05;3.90;;;2.33;;
54835;SDS011;43486;43.574;1.476;2022-12-24T14:38:31;5.60;;;2.22;;
54835;SDS011;43486;43.574;1.476;2022-12-24T14:46:33;4.23;;;2.13;;
54835;SDS011;43486;43.574;1.476;2022-12-24T14:54:41;3.20;;;1.98;;
54835;SDS011;43486;43.574;1.476;2022-12-24T14:59:55;4.63;;;2.17;;
54835;SDS011;43486;43.574;1.476;2022-12-24T15:02:29;2.85;;;1.88;;
54835;SDS011;43486;43.574;1.476;2022-12-24T15:05:09;7.22;;;1.80;;
54835;SDS011;43486;43.574;1.476;2022-12-24T15:07:51;5.63;;;1.63;;
54835;SDS011;43486;43.574;1.476;2022-12-24T15:10:25;6.25;;;2.55;;
54835;SDS011;43486;43.574;1.476;2022-12-24T15:12:54;3.83;;;2.00;;
54835;SDS011;43486;43.574;1.476;2022-12-24T15:15:21;6.03;;;2.83;;
54835;SDS011;43486;43.574;1.476;2022-12-24T15:17:46;3.25;;;2.08;;
54835;SDS011;43486;43.574;1.476;2022-12-24T15:20:16;3.55;;;1.88;;
54835;SDS011;43486;43.574;1.476;2022-12-24T15:22:42;8.98;;;2.20;;
54835;SDS011;43486;43.574;1.476;2022-12-24T15:25:25;3.22;;;1.63;;
54835;SDS011;43486;43.574;1.476;2022-12-24T15:27:56;4.93;;;2.17;;
54835;SDS011;43486;43.574;1.476;2022-12-24T15:30:23;3.25;;;1.83;;
54835;SDS011;43486;43.574;1.476;2022-12-24T15:32:53;3.45;;;1.77;;
54835;SDS011;43486;43.574;1.476;2022-12-24T15:37:59;8.75;;;2.10;;
54835;SDS011;43486;43.574;1.476;2022-12-24T15:40:25;3.05;;;2.22;;
54835;SDS011;43486;43.574;1.476;2022-12-24T15:42:50;6.10;;;1.95;;
54835;SDS011;43486;43.574;1.476;2022-12-24T15:47:47;3.67;;;1.58;;
54835;SDS011;43486;43.574;1.476;2022-12-24T15:50:27;3.97;;;2.17;;
54835;SDS011;43486;43.574;1.476;2022-12-24T15:53:01;7.90;;;2.40;;
54835;SDS011;43486;43.574;1.476;2022-12-24T15:55:28;2.63;;;1.65;;
54835;SDS011;43486;43.574;1.476;2022-12-24T15:57:57;3.63;;;2.25;;
54835;SDS011;43486;43.574;1.476;2022-12-24T16:00:23;5.05;;;2.03;;
54835;SDS011;43486;43.574;1.476;2022-12-24T16:02:55;3.67;;;1.88;;
54835;SDS011;43486;43.574;1.476;2022-12-24T16:05:34;3.67;;;1.90;;
54835;SDS011;43486;43.574;1.476;2022-12-24T16:13:11;6.15;;;2.65;;
54835;SDS011;43486;43.574;1.476;2022-12-24T16:18:47;4.30;;;2.20;;
54835;SDS011;43486;43.574;1.476;2022-12-24T16:21:59;7.43;;;1.98;;
54835;SDS011;43486;43.574;1.476;2022-12-24T16:24:15;3.47;;;1.77;;
54835;SDS011;43486;43.574;1.476;2022-12-24T16:26:43;6.25;;;3.45;;
54835;SDS011;43486;43.574;1.476;2022-12-24T16:29:09;3.55;;;1.85;;
54835;SDS011;43486;43.574;1.476;2022-12-24T16:31:36;4.07;;;2.03;;
54835;SDS011;43486;43.574;1.476;2022-12-24T16:34:23;3.88;;;2.00;;
54835;SDS011;43486;43.574;1.476;2022-12-24T16:36:50;5.93;;;2.13;;
54835;SDS011;43486;43.574;1.476;2022-12-24T16:39:18;7.00;;;1.85;;
54835;SDS011;43486;43.574;1.476;2022-12-24T16:41:47;4.63;;;2.38;;
54835;SDS011;43486;43.574;1.476;2022-12-24T16:44:34;4.07;;;2.00;;
54835;SDS011;43486;43.574;1.476;2022-12-24T16:47:00;6.05;;;2.28;;
54835;SDS011;43486;43.574;1.476;2022-12-24T16:49:25;5.70;;;2.35;;
54835;SDS011;43486;43.574;1.476;2022-12-24T16:51:51;7.93;;;2.53;;
54835;SDS011;43486;43.574;1.476;2022-12-24T16:54:16;3.90;;;1.95;;
54835;SDS011;43486;43.574;1.476;2022-12-24T16:56:42;5.45;;;2.17;;
54835;SDS011;43486;43.574;1.476;2022-12-24T16:59:18;8.15;;;3.17;;
54835;SDS011;43486;43.574;1.476;2022-12-24T17:01:45;4.88;;;2.22;;
54835;SDS011;43486;43.574;1.476;2022-12-24T17:04:11;5.05;;;2.45;;
54835;SDS011;43486;43.574;1.476;2022-12-24T17:06:37;3.40;;;2.10;;
54835;SDS011;43486;43.574;1.476;2022-12-24T17:09:02;4.10;;;1.88;;
54835;SDS011;43486;43.574;1.476;2022-12-24T17:11:28;4.07;;;1.85;;
54835;SDS011;43486;43.574;1.476;2022-12-24T17:13:53;8.15;;;3.30;;